Terminal Aerodrome Forecast
Issued by NWS Tulsa, OK

Home | Current Version | Previous Version | Text Only | Print | Product List | Glossary On
Versions: 1 2 3 4 5 6 7 8 9 10 11 12 13 14 15 16
456
FTUS44 KTSA 271549 AAB
TAFTUL
TAF AMD
KTUL 271549Z 2716/2812 19006KT P6SM -RA FEW060 BKN090 OVC120
     FM272200 34010KT P6SM SCT050 BKN150
      TEMPO 2723/2803 3SM -TSRA BKN040CB
     FM280300 36006KT P6SM OVC040=

USA.gov is the U.S. government's official web portal to all federal, state and local government web resources and services.